sensor_id;sensor_type;location;lat;lon;timestamp;P1;durP1;ratioP1;P2;durP2;ratioP2
20181;SDS011;10250;50.756;6.172;2022-08-07T00:01:52;7.30;;;2.00;;
20181;SDS011;10250;50.756;6.172;2022-08-07T00:03:53;5.70;;;2.20;;
20181;SDS011;10250;50.756;6.172;2022-08-07T00:05:53;5.93;;;1.57;;
20181;SDS011;10250;50.756;6.172;2022-08-07T00:07:54;8.93;;;2.53;;
20181;SDS011;10250;50.756;6.172;2022-08-07T00:09:55;6.37;;;2.03;;
20181;SDS011;10250;50.756;6.172;2022-08-07T00:11:55;5.47;;;1.70;;
20181;SDS011;10250;50.756;6.172;2022-08-07T00:13:57;6.07;;;1.80;;
20181;SDS011;10250;50.756;6.172;2022-08-07T00:15:57;4.30;;;1.70;;
20181;SDS011;10250;50.756;6.172;2022-08-07T00:17:58;6.03;;;1.83;;
20181;SDS011;10250;50.756;6.172;2022-08-07T00:19:59;7.07;;;2.03;;
20181;SDS011;10250;50.756;6.172;2022-08-07T00:22:00;7.67;;;2.13;;
20181;SDS011;10250;50.756;6.172;2022-08-07T00:24:01;6.57;;;1.90;;
20181;SDS011;10250;50.756;6.172;2022-08-07T00:26:02;5.80;;;1.90;;
20181;SDS011;10250;50.756;6.172;2022-08-07T00:28:04;5.87;;;2.10;;
20181;SDS011;10250;50.756;6.172;2022-08-07T00:30:05;5.77;;;1.80;;
20181;SDS011;10250;50.756;6.172;2022-08-07T00:32:06;5.70;;;2.03;;
20181;SDS011;10250;50.756;6.172;2022-08-07T00:34:06;4.90;;;1.57;;
20181;SDS011;10250;50.756;6.172;2022-08-07T00:36:07;5.67;;;2.03;;
20181;SDS011;10250;50.756;6.172;2022-08-07T00:38:08;6.77;;;1.90;;
20181;SDS011;10250;50.756;6.172;2022-08-07T00:40:08;7.57;;;2.10;;
20181;SDS011;10250;50.756;6.172;2022-08-07T00:42:10;6.00;;;1.90;;
20181;SDS011;10250;50.756;6.172;2022-08-07T00:44:10;6.20;;;1.90;;
20181;SDS011;10250;50.756;6.172;2022-08-07T00:46:11;4.73;;;1.63;;
20181;SDS011;10250;50.756;6.172;2022-08-07T00:48:11;4.57;;;1.50;;
20181;SDS011;10250;50.756;6.172;2022-08-07T00:50:12;3.77;;;1.50;;
20181;SDS011;10250;50.756;6.172;2022-08-07T00:52:13;4.73;;;1.63;;
20181;SDS011;10250;50.756;6.172;2022-08-07T00:54:14;6.20;;;1.70;;
20181;SDS011;10250;50.756;6.172;2022-08-07T00:56:15;5.20;;;1.57;;
20181;SDS011;10250;50.756;6.172;2022-08-07T00:58:17;6.37;;;1.60;;
20181;SDS011;10250;50.756;6.172;2022-08-07T01:00:18;4.33;;;1.40;;
20181;SDS011;10250;50.756;6.172;2022-08-07T01:02:19;7.43;;;2.40;;
20181;SDS011;10250;50.756;6.172;2022-08-07T01:04:21;6.90;;;1.80;;
20181;SDS011;10250;50.756;6.172;2022-08-07T01:06:22;5.07;;;1.60;;
20181;SDS011;10250;50.756;6.172;2022-08-07T01:08:23;4.83;;;1.60;;
20181;SDS011;10250;50.756;6.172;2022-08-07T01:10:23;6.63;;;1.90;;
20181;SDS011;10250;50.756;6.172;2022-08-07T01:12:24;6.03;;;1.73;;
20181;SDS011;10250;50.756;6.172;2022-08-07T01:14:25;8.47;;;1.80;;
20181;SDS011;10250;50.756;6.172;2022-08-07T01:16:26;5.27;;;1.57;;
20181;SDS011;10250;50.756;6.172;2022-08-07T01:18:27;7.97;;;1.70;;
20181;SDS011;10250;50.756;6.172;2022-08-07T01:20:30;3.57;;;1.37;;
20181;SDS011;10250;50.756;6.172;2022-08-07T01:22:38;6.23;;;1.60;;
20181;SDS011;10250;50.756;6.172;2022-08-07T01:24:39;6.13;;;1.53;;
20181;SDS011;10250;50.756;6.172;2022-08-07T01:26:41;4.17;;;1.40;;
20181;SDS011;10250;50.756;6.172;2022-08-07T01:28:48;4.63;;;1.60;;
20181;SDS011;10250;50.756;6.172;2022-08-07T01:30:51;4.80;;;1.50;;
20181;SDS011;10250;50.756;6.172;2022-08-07T01:32:53;3.97;;;1.43;;
20181;SDS011;10250;50.756;6.172;2022-08-07T01:34:53;3.77;;;1.30;;
20181;SDS011;10250;50.756;6.172;2022-08-07T01:36:54;4.67;;;1.70;;
20181;SDS011;10250;50.756;6.172;2022-08-07T01:38:55;4.40;;;1.67;;
20181;SDS011;10250;50.756;6.172;2022-08-07T01:40:57;5.27;;;1.60;;
20181;SDS011;10250;50.756;6.172;2022-08-07T01:42:58;3.33;;;1.60;;
20181;SDS011;10250;50.756;6.172;2022-08-07T01:44:59;5.43;;;1.53;;
20181;SDS011;10250;50.756;6.172;2022-08-07T01:47:01;5.93;;;1.70;;
20181;SDS011;10250;50.756;6.172;2022-08-07T01:49:02;6.00;;;1.77;;
20181;SDS011;10250;50.756;6.172;2022-08-07T01:51:04;4.77;;;1.63;;
20181;SDS011;10250;50.756;6.172;2022-08-07T01:53:07;3.87;;;1.50;;
20181;SDS011;10250;50.756;6.172;2022-08-07T01:55:10;5.30;;;1.70;;
20181;SDS011;10250;50.756;6.172;2022-08-07T01:57:13;6.03;;;1.73;;
20181;SDS011;10250;50.756;6.172;2022-08-07T01:59:17;5.47;;;1.77;;
20181;SDS011;10250;50.756;6.172;2022-08-07T02:01:36;4.87;;;1.60;;
20181;SDS011;10250;50.756;6.172;2022-08-07T02:03:44;6.13;;;1.90;;
20181;SDS011;10250;50.756;6.172;2022-08-07T02:06:00;5.03;;;1.80;;
20181;SDS011;10250;50.756;6.172;2022-08-07T02:08:08;4.73;;;1.60;;
20181;SDS011;10250;50.756;6.172;2022-08-07T02:10:13;5.47;;;1.67;;
20181;SDS011;10250;50.756;6.172;2022-08-07T02:12:16;5.80;;;1.67;;
20181;SDS011;10250;50.756;6.172;2022-08-07T02:14:23;5.13;;;1.73;;
20181;SDS011;10250;50.756;6.172;2022-08-07T02:16:27;6.27;;;1.83;;
20181;SDS011;10250;50.756;6.172;2022-08-07T02:18:29;5.93;;;1.70;;
20181;SDS011;10250;50.756;6.172;2022-08-07T02:20:32;5.10;;;1.60;;
20181;SDS011;10250;50.756;6.172;2022-08-07T02:22:34;5.93;;;1.63;;
20181;SDS011;10250;50.756;6.172;2022-08-07T02:24:37;4.30;;;1.43;;
20181;SDS011;10250;50.756;6.172;2022-08-07T02:26:40;6.73;;;1.77;;
20181;SDS011;10250;50.756;6.172;2022-08-07T02:28:41;5.13;;;1.53;;
20181;SDS011;10250;50.756;6.172;2022-08-07T02:30:43;3.70;;;1.50;;
20181;SDS011;10250;50.756;6.172;2022-08-07T02:32:45;5.60;;;1.73;;
20181;SDS011;10250;50.756;6.172;2022-08-07T02:34:47;6.90;;;1.80;;
20181;SDS011;10250;50.756;6.172;2022-08-07T02:36:49;6.30;;;1.60;;
20181;SDS011;10250;50.756;6.172;2022-08-07T02:38:51;3.80;;;1.43;;
20181;SDS011;10250;50.756;6.172;2022-08-07T02:40:52;5.17;;;1.70;;
20181;SDS011;10250;50.756;6.172;2022-08-07T02:42:55;5.57;;;1.70;;
20181;SDS011;10250;50.756;6.172;2022-08-07T02:44:57;3.10;;;1.30;;
20181;SDS011;10250;50.756;6.172;2022-08-07T02:47:00;3.40;;;1.33;;
20181;SDS011;10250;50.756;6.172;2022-08-07T02:49:03;4.03;;;1.47;;
20181;SDS011;10250;50.756;6.172;2022-08-07T02:51:06;3.93;;;1.50;;
20181;SDS011;10250;50.756;6.172;2022-08-07T02:53:11;5.53;;;1.43;;
20181;SDS011;10250;50.756;6.172;2022-08-07T02:57:19;5.53;;;1.57;;
20181;SDS011;10250;50.756;6.172;2022-08-07T02:59:23;5.37;;;1.40;;
20181;SDS011;10250;50.756;6.172;2022-08-07T03:01:25;3.83;;;1.43;;
20181;SDS011;10250;50.756;6.172;2022-08-07T03:03:28;3.60;;;1.40;;
20181;SDS011;10250;50.756;6.172;2022-08-07T03:05:32;5.30;;;1.70;;
20181;SDS011;10250;50.756;6.172;2022-08-07T03:07:35;7.70;;;1.80;;
20181;SDS011;10250;50.756;6.172;2022-08-07T03:09:36;4.97;;;1.70;;
20181;SDS011;10250;50.756;6.172;2022-08-07T03:11:38;6.93;;;1.80;;
20181;SDS011;10250;50.756;6.172;2022-08-07T03:13:40;6.23;;;1.80;;
20181;SDS011;10250;50.756;6.172;2022-08-07T03:15:42;6.83;;;1.97;;
20181;SDS011;10250;50.756;6.172;2022-08-07T03:17:43;5.30;;;1.60;;
20181;SDS011;10250;50.756;6.172;2022-08-07T03:19:45;6.50;;;1.87;;
20181;SDS011;10250;50.756;6.172;2022-08-07T03:21:47;5.50;;;1.70;;
20181;SDS011;10250;50.756;6.172;2022-08-07T03:23:49;3.87;;;1.53;;
20181;SDS011;10250;50.756;6.172;2022-08-07T03:25:52;3.90;;;1.33;;
20181;SDS011;10250;50.756;6.172;2022-08-07T03:27:56;3.80;;;1.37;;
20181;SDS011;10250;50.756;6.172;2022-08-07T03:29:58;4.03;;;1.53;;
20181;SDS011;10250;50.756;6.172;2022-08-07T03:32:00;4.67;;;1.50;;
20181;SDS011;10250;50.756;6.172;2022-08-07T03:34:04;4.03;;;1.47;;
20181;SDS011;10250;50.756;6.172;2022-08-07T03:36:07;4.43;;;1.50;;
20181;SDS011;10250;50.756;6.172;2022-08-07T03:38:09;5.50;;;1.77;;
20181;SDS011;10250;50.756;6.172;2022-08-07T03:40:12;2.70;;;1.10;;
20181;SDS011;10250;50.756;6.172;2022-08-07T03:42:14;4.93;;;1.50;;
20181;SDS011;10250;50.756;6.172;2022-08-07T03:44:16;6.33;;;1.67;;
20181;SDS011;10250;50.756;6.172;2022-08-07T03:46:17;4.27;;;1.50;;
20181;SDS011;10250;50.756;6.172;2022-08-07T03:48:17;4.37;;;1.50;;
20181;SDS011;10250;50.756;6.172;2022-08-07T03:50:18;5.33;;;1.70;;
20181;SDS011;10250;50.756;6.172;2022-08-07T03:52:20;5.20;;;1.30;;
20181;SDS011;10250;50.756;6.172;2022-08-07T03:54:22;5.63;;;1.90;;
20181;SDS011;10250;50.756;6.172;2022-08-07T03:56:23;4.30;;;1.57;;
20181;SDS011;10250;50.756;6.172;2022-08-07T03:58:25;4.47;;;1.53;;
20181;SDS011;10250;50.756;6.172;2022-08-07T04:00:27;5.00;;;1.47;;
20181;SDS011;10250;50.756;6.172;2022-08-07T04:02:29;6.23;;;1.80;;
20181;SDS011;10250;50.756;6.172;2022-08-07T04:04:30;5.47;;;1.50;;
20181;SDS011;10250;50.756;6.172;2022-08-07T04:06:31;3.77;;;1.30;;
20181;SDS011;10250;50.756;6.172;2022-08-07T04:08:33;2.70;;;1.20;;
20181;SDS011;10250;50.756;6.172;2022-08-07T04:10:34;4.63;;;1.63;;
20181;SDS011;10250;50.756;6.172;2022-08-07T04:12:35;4.23;;;1.40;;
20181;SDS011;10250;50.756;6.172;2022-08-07T04:14:35;5.33;;;1.50;;
20181;SDS011;10250;50.756;6.172;2022-08-07T04:16:36;3.23;;;1.50;;
20181;SDS011;10250;50.756;6.172;2022-08-07T04:18:37;5.87;;;1.50;;
20181;SDS011;10250;50.756;6.172;2022-08-07T04:20:38;5.67;;;1.50;;
20181;SDS011;10250;50.756;6.172;2022-08-07T04:22:39;4.90;;;1.17;;
20181;SDS011;10250;50.756;6.172;2022-08-07T04:24:40;4.60;;;1.40;;
20181;SDS011;10250;50.756;6.172;2022-08-07T04:26:41;3.53;;;1.17;;
20181;SDS011;10250;50.756;6.172;2022-08-07T04:28:43;3.60;;;1.37;;
20181;SDS011;10250;50.756;6.172;2022-08-07T04:30:46;4.33;;;1.40;;
20181;SDS011;10250;50.756;6.172;2022-08-07T04:32:48;3.37;;;1.30;;
20181;SDS011;10250;50.756;6.172;2022-08-07T04:34:49;4.13;;;1.20;;
20181;SDS011;10250;50.756;6.172;2022-08-07T04:36:51;3.63;;;1.30;;
20181;SDS011;10250;50.756;6.172;2022-08-07T04:38:52;2.50;;;1.13;;
20181;SDS011;10250;50.756;6.172;2022-08-07T04:40:52;3.47;;;1.40;;
20181;SDS011;10250;50.756;6.172;2022-08-07T04:42:53;3.43;;;1.47;;
20181;SDS011;10250;50.756;6.172;2022-08-07T04:44:54;4.40;;;1.37;;
20181;SDS011;10250;50.756;6.172;2022-08-07T04:47:04;4.50;;;1.50;;
20181;SDS011;10250;50.756;6.172;2022-08-07T04:49:29;3.70;;;1.23;;
20181;SDS011;10250;50.756;6.172;2022-08-07T04:53:45;4.53;;;1.40;;
20181;SDS011;10250;50.756;6.172;2022-08-07T04:56:00;3.77;;;1.33;;
20181;SDS011;10250;50.756;6.172;2022-08-07T04:58:25;5.90;;;1.50;;
20181;SDS011;10250;50.756;6.172;2022-08-07T05:01:05;4.13;;;1.27;;
20181;SDS011;10250;50.756;6.172;2022-08-07T05:03:35;6.23;;;1.50;;
20181;SDS011;10250;50.756;6.172;2022-08-07T05:06:06;7.17;;;1.80;;
20181;SDS011;10250;50.756;6.172;2022-08-07T05:08:13;4.40;;;1.70;;
20181;SDS011;10250;50.756;6.172;2022-08-07T05:10:36;2.67;;;1.10;;
20181;SDS011;10250;50.756;6.172;2022-08-07T05:12:46;5.10;;;1.50;;
20181;SDS011;10250;50.756;6.172;2022-08-07T05:14:51;2.90;;;1.33;;
20181;SDS011;10250;50.756;6.172;2022-08-07T05:16:55;4.27;;;1.53;;
20181;SDS011;10250;50.756;6.172;2022-08-07T05:19:01;4.63;;;1.50;;
20181;SDS011;10250;50.756;6.172;2022-08-07T05:21:07;5.37;;;1.53;;
20181;SDS011;10250;50.756;6.172;2022-08-07T05:23:18;5.33;;;1.50;;
20181;SDS011;10250;50.756;6.172;2022-08-07T05:25:21;3.97;;;1.47;;
20181;SDS011;10250;50.756;6.172;2022-08-07T05:27:22;3.40;;;1.30;;
20181;SDS011;10250;50.756;6.172;2022-08-07T05:29:24;5.50;;;1.67;;
20181;SDS011;10250;50.756;6.172;2022-08-07T05:31:27;4.43;;;1.47;;
20181;SDS011;10250;50.756;6.172;2022-08-07T05:33:33;4.13;;;1.73;;
20181;SDS011;10250;50.756;6.172;2022-08-07T05:35:35;4.63;;;1.50;;
20181;SDS011;10250;50.756;6.172;2022-08-07T05:37:37;4.80;;;1.40;;
20181;SDS011;10250;50.756;6.172;2022-08-07T05:39:39;6.70;;;2.03;;
20181;SDS011;10250;50.756;6.172;2022-08-07T05:41:40;3.80;;;1.37;;
20181;SDS011;10250;50.756;6.172;2022-08-07T05:43:45;3.97;;;1.43;;
20181;SDS011;10250;50.756;6.172;2022-08-07T05:45:48;5.37;;;1.50;;
20181;SDS011;10250;50.756;6.172;2022-08-07T05:47:50;5.50;;;1.60;;
20181;SDS011;10250;50.756;6.172;2022-08-07T05:49:52;6.63;;;1.83;;
20181;SDS011;10250;50.756;6.172;2022-08-07T05:51:54;3.23;;;1.20;;
20181;SDS011;10250;50.756;6.172;2022-08-07T05:53:55;4.57;;;1.40;;
20181;SDS011;10250;50.756;6.172;2022-08-07T05:55:55;5.03;;;1.60;;
20181;SDS011;10250;50.756;6.172;2022-08-07T05:57:57;5.50;;;1.77;;
20181;SDS011;10250;50.756;6.172;2022-08-07T05:59:59;4.00;;;1.40;;
20181;SDS011;10250;50.756;6.172;2022-08-07T06:02:00;4.00;;;1.30;;
20181;SDS011;10250;50.756;6.172;2022-08-07T06:04:04;4.90;;;1.70;;
20181;SDS011;10250;50.756;6.172;2022-08-07T06:06:07;3.03;;;1.23;;
20181;SDS011;10250;50.756;6.172;2022-08-07T06:08:08;5.73;;;1.70;;
20181;SDS011;10250;50.756;6.172;2022-08-07T06:10:09;4.30;;;1.73;;
20181;SDS011;10250;50.756;6.172;2022-08-07T06:12:10;6.13;;;1.70;;
20181;SDS011;10250;50.756;6.172;2022-08-07T06:14:12;6.33;;;2.00;;
20181;SDS011;10250;50.756;6.172;2022-08-07T06:16:13;7.07;;;2.00;;
20181;SDS011;10250;50.756;6.172;2022-08-07T06:18:15;8.87;;;2.20;;
20181;SDS011;10250;50.756;6.172;2022-08-07T06:20:16;7.20;;;1.90;;
20181;SDS011;10250;50.756;6.172;2022-08-07T06:22:17;5.63;;;1.70;;
20181;SDS011;10250;50.756;6.172;2022-08-07T06:24:19;9.20;;;2.10;;
20181;SDS011;10250;50.756;6.172;2022-08-07T06:26:19;5.97;;;1.80;;
20181;SDS011;10250;50.756;6.172;2022-08-07T06:28:20;6.73;;;2.10;;
20181;SDS011;10250;50.756;6.172;2022-08-07T06:30:21;9.47;;;2.07;;
20181;SDS011;10250;50.756;6.172;2022-08-07T06:32:22;7.63;;;2.10;;
20181;SDS011;10250;50.756;6.172;2022-08-07T06:34:23;5.20;;;1.87;;
20181;SDS011;10250;50.756;6.172;2022-08-07T06:36:27;6.57;;;2.10;;
20181;SDS011;10250;50.756;6.172;2022-08-07T06:38:29;6.03;;;1.90;;
20181;SDS011;10250;50.756;6.172;2022-08-07T06:40:29;4.37;;;1.60;;
20181;SDS011;10250;50.756;6.172;2022-08-07T06:42:38;6.67;;;1.97;;
20181;SDS011;10250;50.756;6.172;2022-08-07T06:44:41;7.07;;;2.07;;
20181;SDS011;10250;50.756;6.172;2022-08-07T06:46:45;8.30;;;1.83;;
20181;SDS011;10250;50.756;6.172;2022-08-07T06:48:45;8.37;;;2.30;;
20181;SDS011;10250;50.756;6.172;2022-08-07T06:50:46;7.50;;;2.03;;
20181;SDS011;10250;50.756;6.172;2022-08-07T06:52:48;4.70;;;1.50;;
20181;SDS011;10250;50.756;6.172;2022-08-07T06:54:53;8.33;;;2.20;;
20181;SDS011;10250;50.756;6.172;2022-08-07T06:56:56;7.10;;;2.00;;
20181;SDS011;10250;50.756;6.172;2022-08-07T06:58:58;6.90;;;1.97;;
20181;SDS011;10250;50.756;6.172;2022-08-07T07:00:59;5.67;;;1.70;;
20181;SDS011;10250;50.756;6.172;2022-08-07T07:03:05;8.47;;;2.00;;
20181;SDS011;10250;50.756;6.172;2022-08-07T07:05:07;6.93;;;1.80;;
20181;SDS011;10250;50.756;6.172;2022-08-07T07:07:08;6.07;;;1.80;;
20181;SDS011;10250;50.756;6.172;2022-08-07T07:09:19;6.87;;;1.80;;
20181;SDS011;10250;50.756;6.172;2022-08-07T07:11:27;6.33;;;2.00;;
20181;SDS011;10250;50.756;6.172;2022-08-07T07:13:35;6.93;;;1.70;;
20181;SDS011;10250;50.756;6.172;2022-08-07T07:15:40;4.67;;;1.50;;
20181;SDS011;10250;50.756;6.172;2022-08-07T07:17:56;6.03;;;1.73;;
20181;SDS011;10250;50.756;6.172;2022-08-07T07:20:15;4.77;;;1.40;;
20181;SDS011;10250;50.756;6.172;2022-08-07T07:22:22;2.70;;;1.13;;
20181;SDS011;10250;50.756;6.172;2022-08-07T07:24:24;2.90;;;1.20;;
20181;SDS011;10250;50.756;6.172;2022-08-07T07:26:25;2.83;;;1.30;;
20181;SDS011;10250;50.756;6.172;2022-08-07T07:28:32;5.03;;;1.33;;
20181;SDS011;10250;50.756;6.172;2022-08-07T07:30:37;3.00;;;1.23;;
20181;SDS011;10250;50.756;6.172;2022-08-07T07:32:41;4.70;;;1.50;;
20181;SDS011;10250;50.756;6.172;2022-08-07T07:34:44;3.47;;;1.00;;
20181;SDS011;10250;50.756;6.172;2022-08-07T07:36:48;4.80;;;1.23;;
20181;SDS011;10250;50.756;6.172;2022-08-07T07:38:49;2.90;;;1.10;;
20181;SDS011;10250;50.756;6.172;2022-08-07T07:40:51;3.57;;;1.20;;
20181;SDS011;10250;50.756;6.172;2022-08-07T07:42:55;2.60;;;1.10;;
20181;SDS011;10250;50.756;6.172;2022-08-07T07:44:56;3.30;;;1.00;;
20181;SDS011;10250;50.756;6.172;2022-08-07T07:47:03;3.03;;;1.10;;
20181;SDS011;10250;50.756;6.172;2022-08-07T07:49:06;4.43;;;1.20;;
20181;SDS011;10250;50.756;6.172;2022-08-07T07:51:08;3.37;;;1.30;;
20181;SDS011;10250;50.756;6.172;2022-08-07T07:53:10;2.93;;;1.20;;
20181;SDS011;10250;50.756;6.172;2022-08-07T07:55:12;4.10;;;1.37;;
20181;SDS011;10250;50.756;6.172;2022-08-07T07:57:17;3.83;;;1.23;;
20181;SDS011;10250;50.756;6.172;2022-08-07T07:59:20;3.30;;;1.20;;
20181;SDS011;10250;50.756;6.172;2022-08-07T08:01:21;8.10;;;1.50;;
20181;SDS011;10250;50.756;6.172;2022-08-07T08:03:24;1.50;;;0.90;;
20181;SDS011;10250;50.756;6.172;2022-08-07T08:05:29;3.00;;;1.03;;
20181;SDS011;10250;50.756;6.172;2022-08-07T08:07:30;2.47;;;1.00;;
20181;SDS011;10250;50.756;6.172;2022-08-07T08:09:31;3.03;;;0.80;;
20181;SDS011;10250;50.756;6.172;2022-08-07T08:11:33;3.13;;;1.10;;
20181;SDS011;10250;50.756;6.172;2022-08-07T08:13:37;1.90;;;0.90;;
20181;SDS011;10250;50.756;6.172;2022-08-07T08:15:41;2.80;;;1.03;;
20181;SDS011;10250;50.756;6.172;2022-08-07T08:17:45;2.83;;;0.93;;
20181;SDS011;10250;50.756;6.172;2022-08-07T08:19:47;2.90;;;1.00;;
20181;SDS011;10250;50.756;6.172;2022-08-07T08:21:51;1.90;;;0.90;;
20181;SDS011;10250;50.756;6.172;2022-08-07T08:24:12;2.20;;;0.90;;
20181;SDS011;10250;50.756;6.172;2022-08-07T08:26:34;3.93;;;0.70;;
20181;SDS011;10250;50.756;6.172;2022-08-07T08:28:53;3.03;;;1.10;;
20181;SDS011;10250;50.756;6.172;2022-08-07T08:30:56;4.23;;;1.10;;
20181;SDS011;10250;50.756;6.172;2022-08-07T08:33:00;3.07;;;1.10;;
20181;SDS011;10250;50.756;6.172;2022-08-07T08:35:04;4.87;;;1.40;;
20181;SDS011;10250;50.756;6.172;2022-08-07T08:37:10;3.40;;;1.00;;
20181;SDS011;10250;50.756;6.172;2022-08-07T08:39:12;3.03;;;0.90;;
20181;SDS011;10250;50.756;6.172;2022-08-07T08:41:17;1.50;;;0.90;;
20181;SDS011;10250;50.756;6.172;2022-08-07T08:46:17;2.43;;;0.97;;
20181;SDS011;10250;50.756;6.172;2022-08-07T08:48:29;2.63;;;1.07;;
20181;SDS011;10250;50.756;6.172;2022-08-07T08:50:34;1.43;;;0.90;;
20181;SDS011;10250;50.756;6.172;2022-08-07T08:52:47;1.73;;;1.00;;
20181;SDS011;10250;50.756;6.172;2022-08-07T08:54:57;3.27;;;1.10;;
20181;SDS011;10250;50.756;6.172;2022-08-07T08:57:03;2.10;;;0.80;;
20181;SDS011;10250;50.756;6.172;2022-08-07T09:03:43;2.07;;;0.73;;
20181;SDS011;10250;50.756;6.172;2022-08-07T09:05:58;2.03;;;0.80;;
20181;SDS011;10250;50.756;6.172;2022-08-07T09:08:22;1.80;;;0.60;;
20181;SDS011;10250;50.756;6.172;2022-08-07T09:10:40;2.27;;;0.80;;
20181;SDS011;10250;50.756;6.172;2022-08-07T09:22:28;3.07;;;0.87;;
20181;SDS011;10250;50.756;6.172;2022-08-07T09:27:02;3.70;;;1.00;;
20181;SDS011;10250;50.756;6.172;2022-08-07T09:36:50;1.70;;;0.67;;
20181;SDS011;10250;50.756;6.172;2022-08-07T09:41:29;2.13;;;0.70;;
20181;SDS011;10250;50.756;6.172;2022-08-07T09:52:51;1.13;;;0.70;;
20181;SDS011;10250;50.756;6.172;2022-08-07T09:55:03;4.03;;;0.83;;
20181;SDS011;10250;50.756;6.172;2022-08-07T09:57:48;0.63;;;0.57;;
20181;SDS011;10250;50.756;6.172;2022-08-07T10:00:14;1.20;;;0.50;;
20181;SDS011;10250;50.756;6.172;2022-08-07T10:02:33;1.13;;;0.53;;
20181;SDS011;10250;50.756;6.172;2022-08-07T10:11:54;1.63;;;0.70;;
20181;SDS011;10250;50.756;6.172;2022-08-07T10:14:22;1.37;;;0.77;;
20181;SDS011;10250;50.756;6.172;2022-08-07T10:16:59;1.20;;;0.60;;
20181;SDS011;10250;50.756;6.172;2022-08-07T10:24:00;2.23;;;0.83;;
20181;SDS011;10250;50.756;6.172;2022-08-07T10:36:34;2.30;;;0.90;;
20181;SDS011;10250;50.756;6.172;2022-08-07T10:43:55;2.20;;;0.80;;
20181;SDS011;10250;50.756;6.172;2022-08-07T10:46:07;1.57;;;0.70;;
20181;SDS011;10250;50.756;6.172;2022-08-07T10:50:44;1.13;;;0.73;;
20181;SDS011;10250;50.756;6.172;2022-08-07T10:52:57;0.70;;;0.57;;
20181;SDS011;10250;50.756;6.172;2022-08-07T10:55:20;2.30;;;0.90;;
20181;SDS011;10250;50.756;6.172;2022-08-07T10:57:28;4.00;;;0.73;;
20181;SDS011;10250;50.756;6.172;2022-08-07T11:04:13;3.27;;;0.63;;
20181;SDS011;10250;50.756;6.172;2022-08-07T11:06:20;2.60;;;0.77;;
20181;SDS011;10250;50.756;6.172;2022-08-07T11:10:54;2.47;;;0.90;;
20181;SDS011;10250;50.756;6.172;2022-08-07T11:13:10;1.60;;;0.83;;
20181;SDS011;10250;50.756;6.172;2022-08-07T11:15:41;3.70;;;0.80;;
20181;SDS011;10250;50.756;6.172;2022-08-07T11:20:00;1.87;;;0.90;;
20181;SDS011;10250;50.756;6.172;2022-08-07T11:26:58;3.00;;;1.00;;
20181;SDS011;10250;50.756;6.172;2022-08-07T11:29:10;1.23;;;0.63;;
20181;SDS011;10250;50.756;6.172;2022-08-07T11:38:37;1.37;;;0.80;;
20181;SDS011;10250;50.756;6.172;2022-08-07T11:43:21;2.10;;;0.80;;
20181;SDS011;10250;50.756;6.172;2022-08-07T11:48:28;1.67;;;0.60;;
20181;SDS011;10250;50.756;6.172;2022-08-07T11:57:54;4.37;;;0.70;;
20181;SDS011;10250;50.756;6.172;2022-08-07T12:00:05;2.43;;;0.90;;
20181;SDS011;10250;50.756;6.172;2022-08-07T12:05:01;1.17;;;0.57;;
20181;SDS011;10250;50.756;6.172;2022-08-07T12:07:16;3.20;;;0.80;;
20181;SDS011;10250;50.756;6.172;2022-08-07T12:09:27;0.80;;;0.70;;
20181;SDS011;10250;50.756;6.172;2022-08-07T12:11:34;2.47;;;0.80;;
20181;SDS011;10250;50.756;6.172;2022-08-07T12:15:53;0.70;;;0.67;;
20181;SDS011;10250;50.756;6.172;2022-08-07T12:18:02;1.13;;;0.60;;
20181;SDS011;10250;50.756;6.172;2022-08-07T12:20:21;2.33;;;0.90;;
20181;SDS011;10250;50.756;6.172;2022-08-07T12:22:31;1.00;;;0.60;;
20181;SDS011;10250;50.756;6.172;2022-08-07T12:29:51;2.23;;;0.83;;
20181;SDS011;10250;50.756;6.172;2022-08-07T12:34:08;2.57;;;0.90;;
20181;SDS011;10250;50.756;6.172;2022-08-07T12:36:10;1.27;;;0.87;;
20181;SDS011;10250;50.756;6.172;2022-08-07T12:38:14;1.13;;;0.70;;
20181;SDS011;10250;50.756;6.172;2022-08-07T12:40:18;0.93;;;0.70;;
20181;SDS011;10250;50.756;6.172;2022-08-07T12:42:22;1.17;;;0.70;;
20181;SDS011;10250;50.756;6.172;2022-08-07T12:44:25;1.37;;;0.77;;
20181;SDS011;10250;50.756;6.172;2022-08-07T12:46:34;1.75;;;0.90;;
20181;SDS011;10250;50.756;6.172;2022-08-07T12:52:46;0.97;;;0.70;;
20181;SDS011;10250;50.756;6.172;2022-08-07T12:54:56;3.83;;;0.77;;
20181;SDS011;10250;50.756;6.172;2022-08-07T12:57:01;0.80;;;0.70;;
20181;SDS011;10250;50.756;6.172;2022-08-07T12:59:06;1.93;;;0.70;;
20181;SDS011;10250;50.756;6.172;2022-08-07T13:05:54;2.93;;;0.70;;
20181;SDS011;10250;50.756;6.172;2022-08-07T13:10:34;1.10;;;0.67;;
20181;SDS011;10250;50.756;6.172;2022-08-07T13:13:31;0.93;;;0.70;;
20181;SDS011;10250;50.756;6.172;2022-08-07T13:15:32;2.50;;;0.90;;
20181;SDS011;10250;50.756;6.172;2022-08-07T13:20:43;1.03;;;0.70;;
20181;SDS011;10250;50.756;6.172;2022-08-07T13:25:10;2.27;;;0.80;;
20181;SDS011;10250;50.756;6.172;2022-08-07T13:27:21;2.87;;;0.90;;
20181;SDS011;10250;50.756;6.172;2022-08-07T13:29:55;2.53;;;0.90;;
20181;SDS011;10250;50.756;6.172;2022-08-07T13:31:58;1.43;;;0.80;;
20181;SDS011;10250;50.756;6.172;2022-08-07T13:34:05;0.60;;;0.60;;
20181;SDS011;10250;50.756;6.172;2022-08-07T13:36:13;1.47;;;0.80;;
20181;SDS011;10250;50.756;6.172;2022-08-07T13:41:01;1.00;;;0.70;;
20181;SDS011;10250;50.756;6.172;2022-08-07T13:43:11;2.00;;;0.90;;
20181;SDS011;10250;50.756;6.172;2022-08-07T13:45:14;9.13;;;2.60;;
20181;SDS011;10250;50.756;6.172;2022-08-07T13:47:15;1.07;;;0.63;;
20181;SDS011;10250;50.756;6.172;2022-08-07T13:49:19;1.63;;;0.73;;
20181;SDS011;10250;50.756;6.172;2022-08-07T13:51:21;2.60;;;1.00;;
20181;SDS011;10250;50.756;6.172;2022-08-07T13:53:25;1.30;;;0.80;;
20181;SDS011;10250;50.756;6.172;2022-08-07T13:55:38;1.80;;;0.90;;
20181;SDS011;10250;50.756;6.172;2022-08-07T13:57:42;1.73;;;0.87;;
20181;SDS011;10250;50.756;6.172;2022-08-07T13:59:44;2.23;;;0.90;;
20181;SDS011;10250;50.756;6.172;2022-08-07T14:01:52;1.10;;;0.80;;
20181;SDS011;10250;50.756;6.172;2022-08-07T14:03:55;1.60;;;0.80;;
20181;SDS011;10250;50.756;6.172;2022-08-07T14:05:57;1.70;;;0.80;;
20181;SDS011;10250;50.756;6.172;2022-08-07T14:07:59;1.47;;;0.70;;
20181;SDS011;10250;50.756;6.172;2022-08-07T14:10:02;2.00;;;0.90;;
20181;SDS011;10250;50.756;6.172;2022-08-07T14:12:04;1.93;;;0.90;;
20181;SDS011;10250;50.756;6.172;2022-08-07T14:14:29;2.70;;;0.90;;
20181;SDS011;10250;50.756;6.172;2022-08-07T14:16:39;2.17;;;0.90;;
20181;SDS011;10250;50.756;6.172;2022-08-07T14:18:46;0.70;;;0.70;;
20181;SDS011;10250;50.756;6.172;2022-08-07T14:20:49;3.10;;;0.80;;
20181;SDS011;10250;50.756;6.172;2022-08-07T14:22:52;5.80;;;1.20;;
20181;SDS011;10250;50.756;6.172;2022-08-07T14:25:14;2.50;;;1.00;;
20181;SDS011;10250;50.756;6.172;2022-08-07T14:27:20;1.70;;;0.87;;
20181;SDS011;10250;50.756;6.172;2022-08-07T14:29:40;2.37;;;0.90;;
20181;SDS011;10250;50.756;6.172;2022-08-07T14:31:46;2.70;;;0.87;;
20181;SDS011;10250;50.756;6.172;2022-08-07T14:33:48;1.60;;;0.73;;
20181;SDS011;10250;50.756;6.172;2022-08-07T14:35:54;1.33;;;0.90;;
20181;SDS011;10250;50.756;6.172;2022-08-07T14:37:57;1.63;;;0.70;;
20181;SDS011;10250;50.756;6.172;2022-08-07T14:39:59;1.80;;;0.80;;
20181;SDS011;10250;50.756;6.172;2022-08-07T14:42:00;2.70;;;0.93;;
20181;SDS011;10250;50.756;6.172;2022-08-07T14:44:02;2.00;;;0.90;;
20181;SDS011;10250;50.756;6.172;2022-08-07T14:46:08;3.03;;;1.13;;
20181;SDS011;10250;50.756;6.172;2022-08-07T14:48:11;1.60;;;0.70;;
20181;SDS011;10250;50.756;6.172;2022-08-07T14:50:13;1.33;;;0.80;;
20181;SDS011;10250;50.756;6.172;2022-08-07T14:52:18;1.43;;;0.83;;
20181;SDS011;10250;50.756;6.172;2022-08-07T14:54:20;3.07;;;1.10;;
20181;SDS011;10250;50.756;6.172;2022-08-07T14:56:22;1.93;;;0.80;;